M I D A S
Marine Information and Data Acquisition System
Tripno 317 of the Zeeleeuw from 2002-04-11 06:35:16 to 2002-04-11 14:34:41
Back to CruiseResearch ActivitiesStationsMapUnderway DataData graphs

EquipmentUnitsComment
TimeDGPSUTC
LatitudeDGPSDM.mWGS84
LongitudeDGPSDM.mWGS84
HeadingGyrodeg 
SOGDGPSknotsSpeed over ground
COGDGPSdegCourse over ground
DepthEcho soundermeters200 kHz
Missing or incorrect values are displayed as -999
Navigation data collected by the RV Zeeleeuw from 2002-04-11 06:35:16 to 2002-04-11 14:34:41
Time Latitude Longitude Heading SOG COG Depth
2002-04-11 06:36:17 51°13.692 2°55.835 91.3 2.9 273.8 -999
2002-04-11 06:37:12 51°13.695 2°55.77 83.5 2.4 273 12.2
2002-04-11 06:38:12 51°13.703 2°55.764 35.2 0.4 261 12.1
2002-04-11 06:39:13 51°13.703 2°55.746 357.8 2.4 348.9 11.8
2002-04-11 06:40:13 51°13.757 2°55.701 333.2 4.1 332.4 8.5
2002-04-11 06:41:13 51°13.836 2°55.628 333.7 6.2 331.5 8.9
2002-04-11 06:42:13 51°13.932 2°55.552 334.5 6.6 330.9 8.5
2002-04-11 06:43:14 51°14.031 2°55.479 338.8 6.3 336.6 9.1
2002-04-11 06:44:13 51°14.131 2°55.408 338.8 7.6 336.9 8.6
2002-04-11 06:45:14 51°14.253 2°55.276 318 9.1 316.3 8.4
2002-04-11 06:46:14 51°14.35 2°55.082 307 9.7 306 8.7
2002-04-11 06:47:13 51°14.483 2°54.909 333 11.4 325.7 8.2
2002-04-11 06:48:14 51°14.653 2°54.727 334 12.2 326.3 7.9
2002-04-11 06:49:13 51°14.825 2°54.552 333.7 12.7 327 7.8
2002-04-11 06:50:14 51°15.005 2°54.367 335 12.4 327.5 7
2002-04-11 06:51:13 51°15.171 2°54.182 333.2 12.6 325.2 7.4
2002-04-11 06:52:14 51°15.348 2°53.982 332.8 13 323 8
2002-04-11 06:53:13 51°15.523 2°53.784 334.7 13.3 325.9 8.9
2002-04-11 06:54:13 51°15.703 2°53.577 333.2 13.3 324 9.8
2002-04-11 06:55:13 51°15.881 2°53.368 334.5 13.2 324.6 10.3
2002-04-11 06:56:14 51°16.063 2°53.167 335.7 13 325.3 10.7
2002-04-11 06:57:13 51°16.244 2°52.995 338 12.9 330.1 11.2
2002-04-11 06:58:14 51°16.43 2°52.809 334.3 13 327.7 10.9
2002-04-11 06:59:13 51°16.614 2°52.653 340.8 12.8 334.9 9.9
2002-04-11 07:00:14 51°16.806 2°52.519 347.7 12.2 339.4 8.7
2002-04-11 07:01:13 51°16.996 2°52.41 347.8 12.2 340.8 8.3
2002-04-11 07:02:13 51°17.19 2°52.297 348.2 12.4 340.9 9
2002-04-11 07:03:13 51°17.39 2°52.259 6.5 12 0.4 9.2
2002-04-11 07:04:13 51°17.589 2°52.247 3.3 12 356.9 9.3
2002-04-11 07:05:14 51°17.792 2°52.233 1.8 12 356.5 9.1
2002-04-11 07:06:13 51°17.989 2°52.219 4.2 12.1 358.5 9.3
2002-04-11 07:07:14 51°18.171 2°52.317 45 11.6 42.1 9.7
2002-04-11 07:08:14 51°18.272 2°52.584 56.2 11.8 56.9 9.9
2002-04-11 07:09:13 51°18.378 2°52.84 57.2 11.7 57.5 10
2002-04-11 07:10:13 51°18.483 2°53.103 56.7 11.7 57.8 10.1
2002-04-11 07:11:13 51°18.588 2°53.367 56.3 11.8 56.8 10.2
2002-04-11 07:12:13 51°18.694 2°53.632 57.5 11.8 59.1 10.3
2002-04-11 07:13:13 51°18.759 2°53.93 72.3 12 75.9 10.1
2002-04-11 07:14:13 51°18.814 2°54.235 70.2 12 72.5 10.2
2002-04-11 07:15:13 51°18.876 2°54.536 70.2 12 72.1 10.2
2002-04-11 07:16:14 51°18.94 2°54.844 69.8 12 72 10.2
2002-04-11 07:17:14 51°19.001 2°55.148 69.8 12 71.8 10.1
2002-04-11 07:18:13 51°19.062 2°55.445 69.5 12 70.8 9.9
2002-04-11 07:19:14 51°19.126 2°55.753 71.2 12 72.1 9.8
2002-04-11 07:20:13 51°19.188 2°56.05 70 11.9 72.2 9.8
2002-04-11 07:21:13 51°19.252 2°56.35 69.7 11.9 72 9.7
2002-04-11 07:22:14 51°19.318 2°56.656 70.5 12 70.9 9.4
2002-04-11 07:23:13 51°19.382 2°56.952 70 12 70.9 9.5
2002-04-11 07:24:14 51°19.449 2°57.258 69.2 12 70.8 9.2
2002-04-11 07:25:14 51°19.515 2°57.559 69 12 70.1 9.2
2002-04-11 07:26:14 51°19.58 2°57.862 70.2 12 71.7 8.9
2002-04-11 07:27:14 51°19.647 2°58.163 70.5 12 70.9 8.9
2002-04-11 07:28:14 51°19.713 2°58.465 71.2 12 72.1 9
2002-04-11 07:29:13 51°19.779 2°58.762 70.2 12 70.1 8.8
2002-04-11 07:30:13 51°19.847 2°59.06 70 11.8 70.3 8.7
2002-04-11 07:31:14 51°19.914 2°59.364 70.5 11.9 70.7 8.5
2002-04-11 07:32:13 51°19.982 2°59.656 69 11.9 69.1 8.5
2002-04-11 07:33:14 51°20.052 2°59.959 69.3 12 69.6 8.5
2002-04-11 07:34:14 51°20.118 3°0.258 70.5 11.9 70.9 8.4
2002-04-11 07:35:13 51°20.186 3°0.551 70.2 11.8 70.6 8.2
2002-04-11 07:36:14 51°20.252 3°0.853 70.7 11.9 71.9 8.2
2002-04-11 07:37:13 51°20.326 3°1.141 66.8 11.9 67.1 8.2
2002-04-11 07:38:14 51°20.405 3°1.44 67.7 11.9 67.3 8.2
2002-04-11 07:39:14 51°20.48 3°1.732 65.5 11.9 65.6 8.4
2002-04-11 07:40:14 51°20.559 3°2.02 67.7 11.8 67.3 8.4
2002-04-11 07:41:14 51°20.638 3°2.312 67.2 12 66.8 8.6
2002-04-11 07:42:14 51°20.716 3°2.604 67 11.9 66.8 8.5
2002-04-11 07:43:13 51°20.795 3°2.889 66.8 11.9 66.5 8.4
2002-04-11 07:44:13 51°20.873 3°3.18 68.3 11.9 66.9 8.3
2002-04-11 07:45:14 51°20.954 3°3.473 67 11.9 66.6 8.5
2002-04-11 07:46:14 51°21.034 3°3.764 66.3 11.9 65.7 8.7
2002-04-11 07:47:14 51°21.115 3°4.055 67 12 66 8.6
2002-04-11 07:48:14 51°21.197 3°4.345 66.5 12 66.4 9.1
2002-04-11 07:49:14 51°21.277 3°4.638 67 12.1 66.2 9.2
2002-04-11 07:50:13 51°21.358 3°4.925 66.3 12.1 65.7 9.6
2002-04-11 07:51:14 51°21.439 3°5.224 66 12.1 65.4 9.4
2002-04-11 07:52:14 51°21.52 3°5.517 68 12 67.3 9.5
2002-04-11 07:53:14 51°21.601 3°5.811 67.8 12 67 9.7
2002-04-11 07:54:14 51°21.683 3°6.104 67.8 12 67.1 10.1
2002-04-11 07:55:14 51°21.764 3°6.398 67.5 12.2 66.3 10.3
2002-04-11 07:56:14 51°21.85 3°6.69 65.8 12.1 64.4 10.5
2002-04-11 07:57:13 51°21.934 3°6.978 65.7 12.2 64.5 10.7
2002-04-11 07:58:14 51°22.02 3°7.281 66.2 12.4 65.8 10.7
2002-04-11 07:59:14 51°22.107 3°7.577 65.7 12.1 64.5 11.2
2002-04-11 08:00:14 51°22.193 3°7.868 66.7 11.9 65 11.2
2002-04-11 08:01:13 51°22.278 3°8.156 65.2 12.2 64.6 11.5
2002-04-11 08:02:14 51°22.369 3°8.454 65.3 12.2 64.5 11.6
2002-04-11 08:03:14 51°22.457 3°8.749 64.8 12.3 64.2 11.9
2002-04-11 08:04:14 51°22.544 3°9.044 66.8 12.2 65.3 12.2
2002-04-11 08:05:14 51°22.621 3°9.311 66.3 8.5 66.5 12
2002-04-11 08:06:14 51°22.648 3°9.438 75.5 3.4 78.5 12.2
2002-04-11 08:07:14 51°22.658 3°9.5 50.8 1.9 50.5 12.5
2002-04-11 08:08:13 51°22.684 3°9.503 5.7 2.3 342 12.6
2002-04-11 08:09:14 51°22.695 3°9.474 6 1.8 224.2 12.6
2002-04-11 08:10:14 51°22.699 3°9.447 19 1.6 339.9 12.6
2002-04-11 08:11:13 51°22.698 3°9.421 19.8 1.1 257.5 12.6
2002-04-11 08:12:13 51°22.702 3°9.397 17.2 1 307.2 12.6
2002-04-11 08:13:14 51°22.72 3°9.385 31.2 1.5 3.3 12.5
2002-04-11 08:14:14 51°22.739 3°9.402 57.8 1.3 54.1 12.4
2002-04-11 08:15:13 51°22.731 3°9.438 107.7 1.5 138 12.6
2002-04-11 08:16:14 51°22.709 3°9.46 106 1.4 151.8 12.6
2002-04-11 08:17:14 51°22.693 3°9.471 91.2 0.9 167.5 12.5
2002-04-11 08:18:14 51°22.68 3°9.468 84.7 0.8 199.5 12.6
2002-04-11 08:19:14 51°22.666 3°9.453 87.7 1.2 214.3 12.7
2002-04-11 08:20:14 51°22.65 3°9.436 94 1.2 204.6 12.4
2002-04-11 08:21:13 51°22.635 3°9.428 88 0.9 191.8 12.7
2002-04-11 08:22:14 51°22.624 3°9.429 64.8 0.4 160.7 12.6
2002-04-11 08:23:14 51°22.625 3°9.426 29.2 0.5 316.4 12.7
2002-04-11 08:24:14 51°22.637 3°9.413 26 1 331.8 12.5
2002-04-11 08:25:14 51°22.648 3°9.407 41.7 0.5 352.1 12.5
2002-04-11 08:26:14 51°22.655 3°9.408 54.8 0.3 32.8 12
2002-04-11 08:27:14 51°22.655 3°9.418 71.8 0.6 102 11.9
2002-04-11 08:28:14 51°22.647 3°9.436 93.3 1 137.5 12.4
2002-04-11 08:29:14 51°22.635 3°9.451 77.8 0.8 142.7 12.7
2002-04-11 08:30:14 51°22.631 3°9.46 51.2 0.2 90.4 12.7
2002-04-11 08:31:14 51°22.635 3°9.458 30.2 0.5 329.6 12.6
2002-04-11 08:32:14 51°22.645 3°9.448 23.8 0.8 330.8 12.4
2002-04-11 08:33:14 51°22.658 3°9.439 26.3 0.8 340 12.5
2002-04-11 08:34:14 51°22.67 3°9.433 34.3 0.6 341.4 12.7
2002-04-11 08:35:14 51°22.678 3°9.43 37.8 0.5 348.8 12.8
2002-04-11 08:36:14 51°22.687 3°9.429 43.2 0.5 355.1 12.9
2002-04-11 08:37:13 51°22.692 3°9.429 51 0.2 343.7 12.8
2002-04-11 08:38:13 51°22.694 3°9.428 53.8 0.1 321.2 12.8
2002-04-11 08:39:14 51°22.692 3°9.427 63.2 0.2 184.8 12.9
2002-04-11 08:40:14 51°22.686 3°9.428 72.7 0.5 176.8 12.9
2002-04-11 08:41:14 51°22.677 3°9.429 79.2 0.7 175.2 12.8
2002-04-11 08:42:14 51°22.664 3°9.431 77.8 0.7 176.6 12.5
2002-04-11 08:43:14 51°22.654 3°9.432 66 0.4 132.3 12.2
2002-04-11 08:44:13 51°22.738 3°9.402 332.8 10.2 326.3 12.7
2002-04-11 08:45:14 51°22.887 3°9.16 317 13.3 310.8 12.7
2002-04-11 08:46:14 51°23.048 3°8.917 326.5 13.3 320.7 12.3
2002-04-11 08:47:14 51°23.206 3°8.671 314.7 13.3 308.7 11.7
2002-04-11 08:48:14 51°23.338 3°8.381 315.2 13.4 308.8 12.1
2002-04-11 08:49:14 51°23.49 3°8.117 319.7 13.5 314.7 15.6
2002-04-11 08:50:14 51°23.652 3°7.875 322.8 13.3 318.1 17.7
2002-04-11 08:51:13 51°23.825 3°7.655 323.3 13.6 319.7 17.8
2002-04-11 08:52:13 51°23.971 3°7.379 306 13.8 303.2 18.1
2002-04-11 08:53:14 51°24.083 3°7.106 310.5 8.9 306.3 18.3
2002-04-11 08:54:14 51°24.15 3°6.986 321.7 4.9 314.3 17
2002-04-11 08:55:14 51°24.196 3°6.909 325.3 3.4 311 15.6
2002-04-11 08:56:14 51°24.233 3°6.868 357.8 2.6 339.4 14.5
2002-04-11 08:57:14 51°24.262 3°6.885 52 0.2 83.6 14.1
2002-04-11 08:58:13 51°24.259 3°6.884 57.2 0.3 109.2 14.3
2002-04-11 08:59:14 51°24.26 3°6.899 54.8 0.7 75 14.2
2002-04-11 09:00:14 51°24.266 3°6.921 51.7 1 65.8 14.1
2002-04-11 09:01:14 51°24.275 3°6.945 45.3 1 46.8 14
2002-04-11 09:02:13 51°24.284 3°6.961 39.5 0.6 41.5 13.6
2002-04-11 09:03:14 51°24.29 3°6.97 36.5 0.5 35.5 13.6
2002-04-11 09:04:14 51°24.296 3°6.974 30.5 0.4 353.9 13.5
2002-04-11 09:05:14 51°24.301 3°6.975 34.2 0.3 4.5 13.3
2002-04-11 09:06:13 51°24.302 3°6.977 41.3 0.2 41.3 13.5
2002-04-11 09:07:14 51°24.302 3°6.982 48.5 0.3 135.4 13.5
2002-04-11 09:08:13 51°24.299 3°6.987 56.2 0.4 141.8 13.5
2002-04-11 09:09:14 51°24.292 3°6.996 58 0.6 137.7 13.6
2002-04-11 09:10:14 51°24.287 3°7.005 54 0.4 132.6 13.8
2002-04-11 09:11:14 51°24.283 3°7.011 41.7 0.2 107.2 13.7
2002-04-11 09:12:14 51°24.283 3°7.013 32.5   34.7 13.9
2002-04-11 09:13:14 51°24.284 3°7.014 37.5 0.1 110.8 13.9
2002-04-11 09:14:14 51°24.282 3°7.017 45 0.2 134.2 13.8
2002-04-11 09:15:14 51°24.277 3°7.023 61.8 0.6 144.8 13.8
2002-04-11 09:16:14 51°24.267 3°7.034 82.7 0.9 146.4 14.1
2002-04-11 09:17:14 51°24.251 3°7.048 107.8 1.3 155.4 14.3
2002-04-11 09:18:14 51°24.23 3°7.067 104.8 1.5 146.5 14.8
2002-04-11 09:19:14 51°24.21 3°7.089 91 1.2 137.9 15.6
2002-04-11 09:20:13 51°24.203 3°7.11 70.2 0.8 107.3 15.9
2002-04-11 09:21:14 51°24.205 3°7.127 43.2 0.6 57.8 15.8
2002-04-11 09:22:14 51°24.213 3°7.132 18.7 0.7 2.3 15.5
2002-04-11 09:23:14 51°24.224 3°7.13 24.3 0.6 1.9 15.1
2002-04-11 09:24:14 51°24.229 3°7.137 44.5 0.4 71.2 14.9
2002-04-11 09:25:14 51°24.23 3°7.151 50 0.6 85.2 15
2002-04-11 09:26:14 51°24.232 3°7.164 43.5 0.5 77.4 15
2002-04-11 09:27:14 51°24.237 3°7.176 34.2 0.6 47.6 14.8
2002-04-11 09:28:14 51°24.244 3°7.185 30 0.6 36.9 14.7
2002-04-11 09:29:14 51°24.253 3°7.195 36.5 0.7 44.6 14.3
2002-04-11 09:30:14 51°24.258 3°7.21 45.7 0.7 70.6 14.2
2002-04-11 09:31:14 51°24.258 3°7.23 53.7 0.8 99.5 14.4
2002-04-11 09:32:14 51°24.256 3°7.25 43.7 0.7 94.7 14.4
2002-04-11 09:33:14 51°24.257 3°7.262 27 0.3 67.2 14.4
2002-04-11 09:34:14 51°24.262 3°7.264 12.8 0.4 357.3 14.1
2002-04-11 09:35:14 51°24.271 3°7.259 6.8 0.6 340.5 14.1
2002-04-11 09:36:14 51°24.281 3°7.257 13.7 0.6 4.3 13.9
2002-04-11 09:37:14 51°24.294 3°7.262 21.2 1.4 19.6 13.8
2002-04-11 09:38:14 51°24.38 3°7.333 15 7.4 16.6 12.4
2002-04-11 09:39:14 51°24.514 3°7.367 11.3 8.5 10 11.5
2002-04-11 09:40:14 51°24.655 3°7.408 12 8.7 10.4 11
2002-04-11 09:41:14 51°24.796 3°7.457 14.5 8.7 14.2 10.4
2002-04-11 09:42:14 51°24.934 3°7.509 14 8.4 13.1 10
2002-04-11 09:43:14 51°25.07 3°7.559 14.3 8.3 13.8 8.9
2002-04-11 09:44:14 51°25.203 3°7.608 13.8 8.2 13.2 8.8
2002-04-11 09:45:14 51°25.335 3°7.658 13.8 8.2 13.3 9.1
2002-04-11 09:46:14 51°25.467 3°7.714 15.2 8.2 15.2 9.1
2002-04-11 09:47:14 51°25.597 3°7.769 14.7 8.1 15 9.4
2002-04-11 09:48:14 51°25.726 3°7.82 15 8 14.2 9.8
2002-04-11 09:49:14 51°25.857 3°7.874 15 8.2 14.3 9.8
2002-04-11 09:50:14 51°25.99 3°7.926 14.3 8.1 12.8 10.1
2002-04-11 09:51:14 51°26.122 3°7.981 14.5 8.3 14 10.2
2002-04-11 09:52:14 51°26.252 3°8.037 14.5 8 15.3 10.6
2002-04-11 09:53:14 51°26.383 3°8.093 14.7 8.2 15.3 10.6
2002-04-11 09:54:14 51°26.516 3°8.149 15 8.3 14.4 10.8
2002-04-11 09:55:14 51°26.649 3°8.206 14.3 8.3 14.3 11.5
2002-04-11 09:56:14 51°26.783 3°8.264 15.2 8.3 15.2 12.2
2002-04-11 09:57:14 51°26.915 3°8.319 15.5 8.1 15.5 12.4
2002-04-11 09:58:14 51°27.048 3°8.375 14.8 8.2 14.4 12.4
2002-04-11 09:59:13 51°27.175 3°8.441 23.5 8.2 23.7 12.5
2002-04-11 10:00:14 51°27.301 3°8.531 19.7 8.2 20.8 12.7
2002-04-11 10:01:14 51°27.429 3°8.605 19.7 8.2 20 13.2
2002-04-11 10:02:14 51°27.556 3°8.68 19.8 8.2 20.2 13.5
2002-04-11 10:03:14 51°27.686 3°8.757 19.8 8.4 19.9 13.7
2002-04-11 10:04:14 51°27.812 3°8.832 20 8 20.3 13.9
2002-04-11 10:05:14 51°27.909 3°8.889 17.8 4.5 18.9 14.2
2002-04-11 10:06:14 51°27.959 3°8.913 17.8 2.6 20 14.3
2002-04-11 10:07:14 51°27.99 3°8.945 34.3 2 45.4 14.3
2002-04-11 10:08:14 51°28.008 3°8.985 37.2 1.8 56 14.4
2002-04-11 10:09:14 51°28.006 3°9 31.5 0.8 176.8 14.5
2002-04-11 10:10:14 51°27.992 3°8.997 7.5 0.9 196.3 14.4
2002-04-11 10:11:14 51°27.977 3°8.982 337.8 0.9 230.3 14.3
2002-04-11 10:12:14 51°28 3°8.973 19.5 1.8 20.9 14.3
2002-04-11 10:13:14 51°28.013 3°8.994 39.2 1 73.3 14.5
2002-04-11 10:14:14 51°28.012 3°9.018 46.3 1 95.4 14.5
2002-04-11 10:15:14 51°28.007 3°9.042 44.2 1 113.2 14.5
2002-04-11 10:16:14 51°27.999 3°9.058 27.5 0.7 137.2 14.5
2002-04-11 10:17:14 51°27.991 3°9.058 351.5 0.6 202.2 14.4
2002-04-11 10:18:14 51°27.98 3°9.043 335 0.8 228 14.4
2002-04-11 10:19:14 51°27.975 3°9.026 342.5 0.7 247.8 14.5
2002-04-11 10:20:14 51°27.974 3°9.012 354.7 0.4 285.5 14.5
2002-04-11 10:21:14 51°27.979 3°9.008 9.5 0.5 2.4 14.5
2002-04-11 10:22:14 51°27.992 3°9.012 9.2 0.9 6.9 14.6
2002-04-11 10:23:14 51°28.007 3°9.015 7.2 0.8 0.2 14.7
2002-04-11 10:24:14 51°28.021 3°9.016 4.8 0.8 357.6 14.8
2002-04-11 10:25:14 51°28.034 3°9.015 1.8 0.7 354.6 14.7
2002-04-11 10:26:14 51°28.043 3°9.009 357 0.6 336.7 14.8
2002-04-11 10:27:14 51°28.05 3°9.001 353.2 0.5 320.2 14.8
2002-04-11 10:28:14 51°28.052 3°8.994 351.2 0.3 275.2 15
2002-04-11 10:29:14 51°28.05 3°8.985 346.5 0.4 244.5 14.8
2002-04-11 10:30:14 51°28.043 3°8.978 341.5 0.7 203.1 14.9
2002-04-11 10:31:14 51°28.029 3°8.972 331.2 1 191.4 15
2002-04-11 10:32:14 51°28.012 3°8.967 323.5 1.1 190.3 14.9
2002-04-11 10:33:14 51°27.996 3°8.96 324.8 0.8 205.9 14.9
2002-04-11 10:34:14 51°27.99 3°8.949 341.5 0.3 258.7 15
2002-04-11 10:35:14 51°27.994 3°8.948 3.2 0.5 16.9 15
2002-04-11 10:36:14 51°28.004 3°8.959 14.5 1 40 15
2002-04-11 10:37:14 51°28.018 3°8.98 19.8 1.3 42.6 15.1
2002-04-11 10:38:14 51°28.033 3°9.004 21 1.3 49.9 15
2002-04-11 10:39:14 51°28.044 3°9.027 18.2 0.9 55.5 15.1
2002-04-11 10:40:14 51°28.053 3°9.043 10.8 0.8 40.6 15.1
2002-04-11 10:41:14 51°28.062 3°9.059 20.5 0.9 57.6 15.2
2002-04-11 10:42:14 51°28.066 3°9.083 37.2 1.1 77.5 15.1
2002-04-11 10:43:14 51°28.065 3°9.119 58.3 1.6 99.5 15
2002-04-11 10:44:14 51°28.058 3°9.165 63.8 1.9 105.2 15.1
2002-04-11 10:45:14 51°28.05 3°9.213 57.5 1.8 103.4 14.9
2002-04-11 10:46:14 51°28.041 3°9.259 83.8 2 112.6 14.8
2002-04-11 10:47:14 51°28.019 3°9.309 123 2.5 132.7 14.5
2002-04-11 10:48:14 51°27.984 3°9.351 155.5 2.8 149.3 14.3
2002-04-11 10:49:14 51°27.94 3°9.378 179.8 2.9 164.6 14.4
2002-04-11 10:50:14 51°27.894 3°9.383 210.7 2.6 184.7 14.2
2002-04-11 10:51:14 51°27.862 3°9.276 282.5 7.2 274.6 14.3
2002-04-11 10:52:14 51°27.907 3°8.993 286.8 12.1 283.3 14.9
2002-04-11 10:53:14 51°27.957 3°8.67 287 12.6 283.7 15.2
2002-04-11 10:54:14 51°28.008 3°8.345 287.3 12.6 283.9 14.9
2002-04-11 10:55:14 51°28.059 3°8.022 288 12.5 283.6 14
2002-04-11 10:56:14 51°28.113 3°7.7 288.2 12.5 284.8 15.5
2002-04-11 10:57:14 51°28.165 3°7.377 287.5 12.5 285.5 16.2
2002-04-11 10:58:14 51°28.22 3°7.051 288.3 12.7 285.3 16.8
2002-04-11 10:59:14 51°28.275 3°6.726 287.3 12.6 284.6 17
2002-04-11 11:00:14 51°28.33 3°6.401 288.2 12.6 286.5 17.3
2002-04-11 11:01:14 51°28.387 3°6.076 287.5 12.7 284.9 17.8
2002-04-11 11:02:14 51°28.442 3°5.752 286.7 12.6 284.4 17.5
2002-04-11 11:03:14 51°28.49 3°5.425 285.2 12.6 283.1 18.3
2002-04-11 11:04:14 51°28.541 3°5.1 286.2 12.6 285.4 20.3
2002-04-11 11:05:14 51°28.592 3°4.773 281.8 12.6 280.9 22
2002-04-11 11:06:14 51°28.625 3°4.44 280.7 12.6 280.3 23.5
2002-04-11 11:07:14 51°28.661 3°4.108 281.2 12.2 280.7 24.7
2002-04-11 11:08:14 51°28.671 3°3.879 285.8 6.3 281 25.2
2002-04-11 11:09:14 51°28.705 3°3.768 297 4.4 299 25.5
2002-04-11 11:10:14 51°28.726 3°3.706 300.5 1.1 306.2 25.7
2002-04-11 11:11:14 51°28.733 3°3.695 313.5 0.5 331.9 25.7
2002-04-11 11:12:14 51°28.737 3°3.694 312.5 0.2 13.6 25.7
2002-04-11 11:13:14 51°28.739 3°3.697 311.3 0.2 80.9 25.8
2002-04-11 11:14:14 51°28.737 3°3.702 308.5 0.3 112.7 25.8
2002-04-11 11:15:14 51°28.734 3°3.71 305.7 0.4 126.1 25.7
2002-04-11 11:16:14 51°28.731 3°3.718 302.7 0.3 125.1 25.8
2002-04-11 11:17:14 51°28.73 3°3.719 293.7 0.2 273.3 25.7
2002-04-11 11:18:14 51°28.731 3°3.712 285.8 0.3 282.4 25.8
2002-04-11 11:19:14 51°28.732 3°3.7 281.2 0.5 272.1 25.7
2002-04-11 11:20:14 51°28.731 3°3.687 274 0.5 251.6 25.9
2002-04-11 11:21:14 51°28.727 3°3.673 264.7 0.6 234.8 25.8
2002-04-11 11:22:14 51°28.719 3°3.658 251.2 0.8 217.7 25.7
2002-04-11 11:23:14 51°28.705 3°3.646 233.2 1.1 200.1 25.8
2002-04-11 11:24:14 51°28.683 3°3.647 200.5 1.5 165.3 25.8
2002-04-11 11:25:14 51°28.661 3°3.664 180.7 1.4 146.4 25.8
2002-04-11 11:26:14 51°28.643 3°3.69 163 1.3 129.2 25.5
2002-04-11 11:27:14 51°28.637 3°3.713 145.2 0.9 110 25.8
2002-04-11 11:28:14 51°28.631 3°3.738 131 1 109.3 25.7
2002-04-11 11:29:14 51°28.626 3°3.765 123.7 1.1 107 25.6
2002-04-11 11:30:14 51°28.622 3°3.795 113.5 1.2 104.9 25.6
2002-04-11 11:31:14 51°28.617 3°3.824 108.7 1.1 105.3 25.4
2002-04-11 11:32:14 51°28.612 3°3.853 110.5 1.2 107.9 25.4
2002-04-11 11:33:14 51°28.607 3°3.886 106.5 1.4 101.1 25.4
2002-04-11 11:34:14 51°28.602 3°3.926 95.8 1.7 98.1 25.3
2002-04-11 11:35:14 51°28.611 3°3.998 51.3 3.4 63.4 25.3
2002-04-11 11:36:14 51°28.633 3°4.045 13.8 1.2 68.7 25.2
2002-04-11 11:37:15 51°28.636 3°4.065 341.5 0.6 82.5 -999
2002-04-11 11:38:14 51°28.636 3°4.082 316.8 0.6 85.6 25.2
2002-04-11 11:39:14 51°28.637 3°4.096 296 0.2 16 25
2002-04-11 11:40:14 51°28.636 3°3.97 270.5 7.1 269.3 25.3
2002-04-11 11:41:14 51°28.655 3°3.766 277.2 6.7 278.7 25.6
2002-04-11 11:42:14 51°28.677 3°3.641 300.8 4.2 303.9 25.8
2002-04-11 11:43:14 51°28.7 3°3.617 329 0.7 18.4 26
2002-04-11 11:44:14 51°28.71 3°3.626 341 0.8 26.4 26.1
2002-04-11 11:45:14 51°28.723 3°3.638 348.7 1 34.3 26
2002-04-11 11:46:14 51°28.737 3°3.651 354.2 0.9 39.6 26
2002-04-11 11:47:14 51°28.748 3°3.666 355.2 0.8 45 26.2
2002-04-11 11:48:14 51°28.756 3°3.678 347.5 0.6 34.7 26
2002-04-11 11:49:14 51°28.765 3°3.687 339.3 0.7 26.8 25.9
2002-04-11 11:50:14 51°28.775 3°3.696 337 0.8 29.1 26
2002-04-11 11:51:14 51°28.788 3°3.705 340 0.9 31.4 26
2002-04-11 11:52:14 51°28.798 3°3.715 340.5 0.7 30.3 25.8
2002-04-11 11:53:14 51°28.806 3°3.726 336 0.6 41.4 26.2
2002-04-11 11:54:14 51°28.815 3°3.736 335.5 0.7 30.7 26.1
2002-04-11 11:55:14 51°28.827 3°3.747 341.2 1 30.3 26.1
2002-04-11 11:56:14 51°28.87 3°3.693 278.3 5.6 286.3 26.1
2002-04-11 11:57:14 51°28.758 3°3.531 204.2 11.7 198.6 26.1
2002-04-11 11:58:14 51°28.559 3°3.43 205.5 12.5 199.2 26
2002-04-11 11:59:14 51°28.367 3°3.308 206.3 12.2 200.4 25.7
2002-04-11 12:00:14 51°28.173 3°3.185 207.8 12.3 202.4 25.3
2002-04-11 12:01:14 51°27.981 3°3.065 206.3 12.3 201.1 24.5
2002-04-11 12:02:14 51°27.79 3°2.949 206.3 12.3 200.2 23
2002-04-11 12:03:14 51°27.596 3°2.832 207.8 12.2 201.6 20
2002-04-11 12:04:14 51°27.408 3°2.715 207.7 12.2 202.8 14.1
2002-04-11 12:05:14 51°27.22 3°2.603 205.3 12 198.1 15.3
2002-04-11 12:06:14 51°27.033 3°2.477 209.3 12.6 203.4 15.2
2002-04-11 12:07:14 51°26.843 3°2.352 208.7 12.4 202.3 15.3
2002-04-11 12:08:14 51°26.655 3°2.218 207.3 12.4 201.4 14.4
2002-04-11 12:09:14 51°26.469 3°2.089 206.7 12.2 200.8 13.9
2002-04-11 12:10:14 51°26.283 3°1.969 207 12.2 201.6 12.8
2002-04-11 12:11:14 51°26.094 3°1.851 206.2 12.2 200 12.9
2002-04-11 12:12:14 51°25.902 3°1.733 206.3 12.3 200.6 13.3
2002-04-11 12:13:14 51°25.712 3°1.618 206.2 12.2 200.1 14
2002-04-11 12:14:14 51°25.52 3°1.501 208 12.7 201.8 15.2
2002-04-11 12:15:14 51°25.328 3°1.374 208.3 12.5 202.4 16
2002-04-11 12:16:14 51°25.133 3°1.253 205.8 13 201 16.2
2002-04-11 12:17:14 51°24.934 3°1.127 210.3 12.7 204.2 18.7
2002-04-11 12:18:14 51°24.743 3°0.987 208.2 12.7 203.4 21.2
2002-04-11 12:19:14 51°24.545 3°0.868 204.8 13 199.8 19.2
2002-04-11 12:20:14 51°24.351 3°0.744 205 12.4 201.9 18.9
2002-04-11 12:21:14 51°24.16 3°0.627 206 12.3 202.4 19.4
2002-04-11 12:22:14 51°23.974 3°0.507 206.5 12.4 202.2 20.4
2002-04-11 12:23:14 51°23.783 3°0.39 205.2 12.5 199.7 21
2002-04-11 12:24:14 51°23.598 3°0.257 213 12.3 208.1 20.6
2002-04-11 12:25:14 51°23.419 3°0.124 206.2 10.6 198.7 20.6
2002-04-11 12:26:14 51°23.318 3°0.097 206 4.6 188.8 20
2002-04-11 12:27:14 51°23.277 3°0.039 239.2 2.7 237.9 19.9
2002-04-11 12:28:14 51°23.248 3°0.008 222 1.2 199.3 19.9
2002-04-11 12:29:14 51°23.244 3°0.006 249.8 0.3 246.5 19.7
2002-04-11 12:30:14 51°23.245 2°59.997 256 0.4 287.2 20
2002-04-11 12:31:14 51°23.246 2°59.987 256.2 0.4 273.7 19.9
2002-04-11 12:32:14 51°23.249 2°59.976 263 0.5 306.4 20
2002-04-11 12:33:14 51°23.254 2°59.97 266.3 0.4 340.5 20.1
2002-04-11 12:34:14 51°23.262 2°59.97 276.7 0.6 10.2 20
2002-04-11 12:35:14 51°23.271 2°59.977 283.8 0.7 23.3 20
2002-04-11 12:36:14 51°23.282 2°59.983 289.3 0.7 19.2 20.1
2002-04-11 12:37:14 51°23.295 2°59.99 290.8 0.7 16.8 20.1
2002-04-11 12:38:14 51°23.306 2°59.997 287 0.7 17 20.4
2002-04-11 12:39:14 51°23.319 2°59.991 272.2 1 312.3 20.3
2002-04-11 12:40:14 51°23.316 2°59.968 233.2 0.8 225.5 20.5
2002-04-11 12:41:14 51°23.301 2°59.966 221.2 0.9 181.6 20.4
2002-04-11 12:42:14 51°23.294 2°59.956 253.5 0.5 265.4 20.4
2002-04-11 12:43:15 51°23.299 2°59.943 262.3 0.5 317 20.1
2002-04-11 12:44:16 51°23.301 2°59.935 255.5 0.3 294 20.4
2002-04-11 12:45:15 51°23.302 2°59.926 245.3 0.3 256.5 20.4
2002-04-11 12:46:14 51°23.295 2°59.921 224 0.7 186.7 20.3
2002-04-11 12:47:15 51°23.281 2°59.917 227.7 0.8 201.5 20.3
2002-04-11 12:48:15 51°23.271 2°59.906 242.7 0.7 234.9 20.2
2002-04-11 12:49:15 51°23.268 2°59.896 247.5 0.3 252.6 20.3
2002-04-11 12:50:15 51°23.267 2°59.89 251.3 0.2 277.3 20.2
2002-04-11 12:51:15 51°23.268 2°59.886 252.8 0.1 285.3 20
2002-04-11 12:52:14 51°23.27 2°59.885 255.5 0.1 11.7 20.3
2002-04-11 12:53:15 51°23.273 2°59.887 257.7 0.3 25.6 20.2
2002-04-11 12:54:14 51°23.276 2°59.89 260.2 0.2 24 20.4
2002-04-11 12:55:14 51°23.281 2°59.891 263.5 0.4 7.5 20.4
2002-04-11 12:56:15 51°23.286 2°59.892 263.8 0.3 2.2 20.3
2002-04-11 12:57:15 51°23.291 2°59.894 263.8 0.3 21.4 20.5
2002-04-11 12:58:15 51°23.295 2°59.897 262.7 0.3 15.4 20.5
2002-04-11 12:59:15 51°23.3 2°59.898 264.7 0.4 358.2 20.5
2002-04-11 13:00:15 51°23.307 2°59.898 265 0.4 359.1 20.5
2002-04-11 13:01:15 51°23.312 2°59.896 264.7 0.4 345.1 20.6
2002-04-11 13:02:15 51°23.317 2°59.894 265.5 0.3 356.7 20.3
2002-04-11 13:03:15 51°23.323 2°59.893 264.8 0.4 351.2 20.7
2002-04-11 13:04:15 51°23.33 2°59.893 264.5 0.3 352.5 20.4
2002-04-11 13:05:15 51°23.338 2°59.892 277.8 0.7 352.2 20.5
2002-04-11 13:06:15 51°23.349 2°59.892 289.7 0.8 8.2 20.7
2002-04-11 13:07:15 51°23.364 2°59.896 295.7 0.9 11.3 20.5
2002-04-11 13:08:15 51°23.38 2°59.899 297.8 0.9 7.2 20.5
2002-04-11 13:09:15 51°23.396 2°59.904 301.7 1 16.9 20.6
2002-04-11 13:10:15 51°23.41 2°59.916 306.7 0.9 33.8 20.4
2002-04-11 13:11:15 51°23.422 2°59.93 306.8 1 28.6 20.4
2002-04-11 13:12:15 51°23.438 2°59.939 312.3 1.1 16.6 20.7
2002-04-11 13:13:15 51°23.455 2°59.946 312.3 1.1 12.2 20.5
2002-04-11 13:14:15 51°23.474 2°59.952 313.3 1.1 10.2 20.4
2002-04-11 13:15:15 51°23.493 2°59.953 304.3 1.2 356 20.6
2002-04-11 13:16:15 51°23.498 2°59.905 235 3.7 236.2 20.6
2002-04-11 13:17:15 51°23.376 2°59.872 201 10.4 192.5 20.4
2002-04-11 13:18:15 51°23.193 2°59.773 208.2 11.7 203.1 19.4
2002-04-11 13:19:15 51°23.01 2°59.662 200.5 11.9 196.6 18.6
2002-04-11 13:20:15 51°22.819 2°59.554 205.2 12.2 201.5 17.9
2002-04-11 13:21:16 51°22.63 2°59.427 206.5 12.2 202.9 17.1
2002-04-11 13:22:15 51°22.433 2°59.327 201.7 12.8 198.1 16.7
2002-04-11 13:23:15 51°22.235 2°59.214 200.8 12.9 197.7 15.7
2002-04-11 13:24:15 51°22.038 2°59.109 204.3 12.6 200.5 15.1
2002-04-11 13:25:15 51°21.846 2°58.983 207.2 12.5 204.2 15
2002-04-11 13:26:15 51°21.654 2°58.863 205.2 12.2 201.9 14.8
2002-04-11 13:27:15 51°21.459 2°58.746 201.3 12.6 197.5 14.5
2002-04-11 13:28:15 51°21.261 2°58.636 203.3 12.2 200.6 14.4
2002-04-11 13:29:15 51°21.065 2°58.531 203.2 12.3 199.6 14.2
2002-04-11 13:30:16 51°20.871 2°58.419 203.3 12.3 200.9 14.1
2002-04-11 13:31:15 51°20.675 2°58.311 203.3 12.8 199 13.9
2002-04-11 13:32:15 51°20.478 2°58.199 202.7 12.7 199.1 13.9
2002-04-11 13:33:15 51°20.281 2°58.085 205.3 12.6 202.2 13.5
2002-04-11 13:34:15 51°20.09 2°57.975 203.7 12.2 200.3 13.3
2002-04-11 13:35:15 51°19.902 2°57.849 205.3 12.1 203.6 13.1
2002-04-11 13:36:16 51°19.708 2°57.726 202.7 12.3 199.9 12.6
2002-04-11 13:37:16 51°19.516 2°57.601 204.5 12 200.5 12.5
2002-04-11 13:38:16 51°19.322 2°57.478 204.5 12.3 200.8 12
2002-04-11 13:39:15 51°19.134 2°57.362 203.5 12.7 200.8 11.8
2002-04-11 13:40:15 51°18.94 2°57.245 204 12.2 201.1 11.2
2002-04-11 13:41:15 51°18.75 2°57.127 204.2 12.2 201.5 10.5
2002-04-11 13:42:15 51°18.559 2°57.01 202.2 12.1 198.8 9.8
2002-04-11 13:43:15 51°18.368 2°56.888 202.2 12.2 199.8 9
2002-04-11 13:44:16 51°18.174 2°56.789 198.7 11.8 195 8.2
2002-04-11 13:45:15 51°17.988 2°56.695 202.2 12.2 198.9 10.2
2002-04-11 13:46:15 51°17.792 2°56.598 201.5 12.1 197.2 12.2
2002-04-11 13:47:15 51°17.603 2°56.507 202 10.3 198 12.8
2002-04-11 13:48:15 51°17.447 2°56.436 199.3 11.4 195.3 12.9
2002-04-11 13:49:16 51°17.25 2°56.338 201.8 12.4 198.1 12.9
2002-04-11 13:50:15 51°17.051 2°56.241 200.7 12.9 197.4 12.7
2002-04-11 13:51:15 51°16.851 2°56.138 200 12.6 195.8 12.5
2002-04-11 13:52:16 51°16.645 2°56.038 201.2 12.7 197.4 12.4
2002-04-11 13:53:16 51°16.448 2°55.936 200.3 12.4 196.7 12.2
2002-04-11 13:54:16 51°16.252 2°55.837 200.8 12.3 197.8 11.9
2002-04-11 13:55:15 51°16.055 2°55.733 199.3 12.8 196.6 11.4
2002-04-11 13:56:16 51°15.848 2°55.639 198.2 12.7 195.2 11
2002-04-11 13:57:15 51°15.651 2°55.549 199.3 12.5 195.7 10.8
2002-04-11 13:58:15 51°15.449 2°55.47 197.7 12.3 193.9 10
2002-04-11 13:59:15 51°15.245 2°55.401 198.7 12.6 193.7 9.8
2002-04-11 14:00:15 51°15.051 2°55.292 203.2 12.2 199.2 10.5
2002-04-11 14:01:16 51°14.887 2°55.258 186 7.8 180.4 11
2002-04-11 14:02:15 51°14.809 2°55.227 217.5 3.7 208.3 11.2
2002-04-11 14:03:16 51°14.768 2°55.182 226.2 2.6 219.1 11.2
2002-04-11 14:04:15 51°14.74 2°55.142 234.2 2 226.7 11.3
2002-04-11 14:05:15 51°14.724 2°55.106 248.8 1.4 243.6 11.3
2002-04-11 14:06:15 51°14.719 2°55.084 260.8 0.2 218.4 11.3
2002-04-11 14:07:15 51°14.716 2°55.098 251.8 0.7 236.4 11.3
2002-04-11 14:08:15 51°14.707 2°55.08 243 0.9 232 11.3
2002-04-11 14:09:15 51°14.697 2°55.066 242.7 0.7 220.1 11.4
2002-04-11 14:10:15 51°14.69 2°55.054 250.5 0.6 235.3 11.3
2002-04-11 14:11:15 51°14.685 2°55.041 252.7 0.9 240.8 11.5
2002-04-11 14:12:15 51°14.676 2°55.018 244.8 1.2 237.9 11.4
2002-04-11 14:13:15 51°14.664 2°54.994 238.3 1.3 228.8 11.6
2002-04-11 14:14:15 51°14.606 2°54.975 181.3 6.7 177.6 11.4
2002-04-11 14:15:15 51°14.453 2°55.022 167.7 10.2 166 11.5
2002-04-11 14:16:15 51°14.315 2°55.169 132.2 10.2 133.1 11.8
2002-04-11 14:17:15 51°14.223 2°55.32 139.7 6.5 138.1 12
2002-04-11 14:18:15 51°14.137 2°55.398 154.3 5.9 154 11.9
2002-04-11 14:19:15 51°14.047 2°55.466 155.2 6.1 154.8 12.1
2002-04-11 14:20:15 51°13.954 2°55.536 155.8 6.2 153.8 11.9
2002-04-11 14:21:15 51°13.867 2°55.6 154.7 5.3 155.1 11.7
2002-04-11 14:22:15 51°13.799 2°55.658 144.7 4.2 145.9 12.2
2002-04-11 14:23:15 51°13.749 2°55.728 136.7 3.8 135.8 11.8
2002-04-11 14:24:15 51°13.718 2°55.792 122.3 2.2 123.3 11.6
2002-04-11 14:25:15 51°13.706 2°55.841 116.2 2 111.9 9.4
2002-04-11 14:26:15 51°13.693 2°55.886 112.3 1.7 115.8 9.9
2002-04-11 14:27:15 51°13.688 2°55.895 127.7 0.4 287.2 10.8
2002-04-11 14:28:20 51°13.685 2°55.904 128.8 0.3 84.3 -999
2002-04-11 14:29:20 51°13.686 2°55.908 130.3 0.1 124.6 -999
2002-04-11 14:30:20 51°13.686 2°55.908 132.7 0.1 292.4 -999
2002-04-11 14:31:20 51°13.688 2°55.905 128 0.2 98.1 -999
2002-04-11 14:32:20 51°13.688 2°55.906 130.2   314.7 -999
2002-04-11 14:33:20 51°13.688 2°55.906 129.8   166.9 -999
2002-04-11 14:34:20 51°13.688 2°55.906 129.5   58.1 -999